sensor_id;sensor_type;location;lat;lon;timestamp;temperature;humidity
79489;SHT31;68949;53.176;18.088;2023-04-06T00:00:17;0.32;63.89
79489;SHT31;68949;53.176;18.088;2023-04-06T00:03:04;0.37;63.66
79489;SHT31;68949;53.176;18.088;2023-04-06T00:05:30;0.39;63.60
79489;SHT31;68949;53.176;18.088;2023-04-06T00:07:57;0.43;63.80
79489;SHT31;68949;53.176;18.088;2023-04-06T00:10:25;0.45;63.79
79489;SHT31;68949;53.176;18.088;2023-04-06T00:12:52;0.44;63.81
79489;SHT31;68949;53.176;18.088;2023-04-06T00:15:20;0.45;63.77
79489;SHT31;68949;53.176;18.088;2023-04-06T00:17:47;0.45;63.70
79489;SHT31;68949;53.176;18.088;2023-04-06T00:20:14;0.45;63.65
79489;SHT31;68949;53.176;18.088;2023-04-06T00:22:41;0.44;63.67
79489;SHT31;68949;53.176;18.088;2023-04-06T00:25:09;0.45;63.67
79489;SHT31;68949;53.176;18.088;2023-04-06T00:27:37;0.44;63.85
79489;SHT31;68949;53.176;18.088;2023-04-06T00:30:05;0.42;64.10
79489;SHT31;68949;53.176;18.088;2023-04-06T00:32:36;0.39;64.26
79489;SHT31;68949;53.176;18.088;2023-04-06T00:35:03;0.37;64.37
79489;SHT31;68949;53.176;18.088;2023-04-06T00:37:31;0.33;64.58
79489;SHT31;68949;53.176;18.088;2023-04-06T00:39:58;0.31;64.58
79489;SHT31;68949;53.176;18.088;2023-04-06T00:42:25;0.30;64.40
79489;SHT31;68949;53.176;18.088;2023-04-06T00:44:52;0.30;64.60
79489;SHT31;68949;53.176;18.088;2023-04-06T00:47:21;0.28;64.86
79489;SHT31;68949;53.176;18.088;2023-04-06T00:49:49;0.27;65.03
79489;SHT31;68949;53.176;18.088;2023-04-06T00:52:16;0.23;65.48
79489;SHT31;68949;53.176;18.088;2023-04-06T00:54:45;0.21;65.40
79489;SHT31;68949;53.176;18.088;2023-04-06T00:57:12;0.22;65.76
79489;SHT31;68949;53.176;18.088;2023-04-06T00:59:40;0.21;65.99
79489;SHT31;68949;53.176;18.088;2023-04-06T01:02:09;0.20;66.01
79489;SHT31;68949;53.176;18.088;2023-04-06T01:04:42;0.20;65.91
79489;SHT31;68949;53.176;18.088;2023-04-06T01:07:12;0.25;65.42
79489;SHT31;68949;53.176;18.088;2023-04-06T01:09:45;0.28;65.12
79489;SHT31;68949;53.176;18.088;2023-04-06T01:12:17;0.25;65.27
79489;SHT31;68949;53.176;18.088;2023-04-06T01:14:43;0.22;65.21
79489;SHT31;68949;53.176;18.088;2023-04-06T01:17:10;0.19;65.40
79489;SHT31;68949;53.176;18.088;2023-04-06T01:19:38;0.18;65.57
79489;SHT31;68949;53.176;18.088;2023-04-06T01:22:07;0.17;65.84
79489;SHT31;68949;53.176;18.088;2023-04-06T01:24:57;0.16;66.26
79489;SHT31;68949;53.176;18.088;2023-04-06T01:27:30;0.18;66.36
79489;SHT31;68949;53.176;18.088;2023-04-06T01:30:15;0.16;66.32
79489;SHT31;68949;53.176;18.088;2023-04-06T01:33:06;0.15;66.49
79489;SHT31;68949;53.176;18.088;2023-04-06T01:35:53;0.12;66.58
79489;SHT31;68949;53.176;18.088;2023-04-06T01:38:20;0.09;66.59
79489;SHT31;68949;53.176;18.088;2023-04-06T01:40:48;0.09;66.56
79489;SHT31;68949;53.176;18.088;2023-04-06T01:43:15;0.09;66.56
79489;SHT31;68949;53.176;18.088;2023-04-06T01:45:56;0.07;66.71
79489;SHT31;68949;53.176;18.088;2023-04-06T01:48:24;0.04;66.87
79489;SHT31;68949;53.176;18.088;2023-04-06T01:50:53;0.08;66.80
79489;SHT31;68949;53.176;18.088;2023-04-06T01:53:23;0.11;66.70
79489;SHT31;68949;53.176;18.088;2023-04-06T01:55:51;0.11;66.73
79489;SHT31;68949;53.176;18.088;2023-04-06T01:58:25;0.10;66.64
79489;SHT31;68949;53.176;18.088;2023-04-06T02:00:52;0.09;66.88
79489;SHT31;68949;53.176;18.088;2023-04-06T02:03:19;0.07;66.84
79489;SHT31;68949;53.176;18.088;2023-04-06T02:05:46;0.04;66.86
79489;SHT31;68949;53.176;18.088;2023-04-06T02:08:39;0.01;66.70
79489;SHT31;68949;53.176;18.088;2023-04-06T02:11:06;-0.00;66.93
79489;SHT31;68949;53.176;18.088;2023-04-06T02:13:38;-0.04;67.15
79489;SHT31;68949;53.176;18.088;2023-04-06T02:16:05;-0.05;67.39
79489;SHT31;68949;53.176;18.088;2023-04-06T02:18:32;-0.08;67.42
79489;SHT31;68949;53.176;18.088;2023-04-06T02:20:59;-0.12;67.59
79489;SHT31;68949;53.176;18.088;2023-04-06T02:23:25;-0.16;67.59
79489;SHT31;68949;53.176;18.088;2023-04-06T02:25:52;-0.19;67.62
79489;SHT31;68949;53.176;18.088;2023-04-06T02:28:19;-0.19;67.60
79489;SHT31;68949;53.176;18.088;2023-04-06T02:30:46;-0.22;67.77
79489;SHT31;68949;53.176;18.088;2023-04-06T02:33:13;-0.24;67.81
79489;SHT31;68949;53.176;18.088;2023-04-06T02:35:43;-0.23;67.78
79489;SHT31;68949;53.176;18.088;2023-04-06T02:38:12;-0.19;67.80
79489;SHT31;68949;53.176;18.088;2023-04-06T02:40:38;-0.19;67.83
79489;SHT31;68949;53.176;18.088;2023-04-06T02:43:14;-0.19;67.77
79489;SHT31;68949;53.176;18.088;2023-04-06T02:45:43;-0.21;67.56
79489;SHT31;68949;53.176;18.088;2023-04-06T02:48:10;-0.23;67.53
79489;SHT31;68949;53.176;18.088;2023-04-06T02:50:37;-0.23;67.84
79489;SHT31;68949;53.176;18.088;2023-04-06T02:53:06;-0.26;68.07
79489;SHT31;68949;53.176;18.088;2023-04-06T02:55:32;-0.26;68.13
79489;SHT31;68949;53.176;18.088;2023-04-06T02:57:59;-0.25;68.22
79489;SHT31;68949;53.176;18.088;2023-04-06T03:00:29;-0.24;68.21
79489;SHT31;68949;53.176;18.088;2023-04-06T03:02:56;-0.25;68.33
79489;SHT31;68949;53.176;18.088;2023-04-06T03:05:23;-0.25;68.52
79489;SHT31;68949;53.176;18.088;2023-04-06T03:07:50;-0.26;68.51
79489;SHT31;68949;53.176;18.088;2023-04-06T03:10:27;-0.25;68.49
79489;SHT31;68949;53.176;18.088;2023-04-06T03:12:53;-0.26;68.53
79489;SHT31;68949;53.176;18.088;2023-04-06T03:15:23;-0.24;68.47
79489;SHT31;68949;53.176;18.088;2023-04-06T03:17:57;-0.21;68.47
79489;SHT31;68949;53.176;18.088;2023-04-06T03:20:37;-0.20;68.68
79489;SHT31;68949;53.176;18.088;2023-04-06T03:23:04;-0.19;68.49
79489;SHT31;68949;53.176;18.088;2023-04-06T03:25:34;-0.17;68.55
79489;SHT31;68949;53.176;18.088;2023-04-06T03:28:03;-0.14;68.40
79489;SHT31;68949;53.176;18.088;2023-04-06T03:30:30;-0.13;67.92
79489;SHT31;68949;53.176;18.088;2023-04-06T03:32:58;-0.13;68.07
79489;SHT31;68949;53.176;18.088;2023-04-06T03:35:25;-0.13;68.02
79489;SHT31;68949;53.176;18.088;2023-04-06T03:37:52;-0.13;68.15
79489;SHT31;68949;53.176;18.088;2023-04-06T03:40:19;-0.12;68.35
79489;SHT31;68949;53.176;18.088;2023-04-06T03:42:46;-0.11;68.64
79489;SHT31;68949;53.176;18.088;2023-04-06T03:45:14;-0.12;68.91
79489;SHT31;68949;53.176;18.088;2023-04-06T03:47:45;-0.10;68.74
79489;SHT31;68949;53.176;18.088;2023-04-06T03:50:12;-0.12;68.88
79489;SHT31;68949;53.176;18.088;2023-04-06T03:52:39;-0.14;69.07
79489;SHT31;68949;53.176;18.088;2023-04-06T03:55:06;-0.15;68.99
79489;SHT31;68949;53.176;18.088;2023-04-06T03:57:36;-0.13;68.93
79489;SHT31;68949;53.176;18.088;2023-04-06T04:00:04;-0.13;68.97
79489;SHT31;68949;53.176;18.088;2023-04-06T04:02:39;-0.15;69.09
79489;SHT31;68949;53.176;18.088;2023-04-06T04:05:06;-0.16;69.20
79489;SHT31;68949;53.176;18.088;2023-04-06T04:07:33;-0.14;69.32
79489;SHT31;68949;53.176;18.088;2023-04-06T04:10:00;-0.13;69.35
79489;SHT31;68949;53.176;18.088;2023-04-06T04:12:27;-0.12;69.56
79489;SHT31;68949;53.176;18.088;2023-04-06T04:14:54;-0.12;69.42
79489;SHT31;68949;53.176;18.088;2023-04-06T04:17:22;-0.10;69.36
79489;SHT31;68949;53.176;18.088;2023-04-06T04:19:51;-0.07;69.28
79489;SHT31;68949;53.176;18.088;2023-04-06T04:22:17;-0.05;69.38
79489;SHT31;68949;53.176;18.088;2023-04-06T04:24:44;-0.08;69.68
79489;SHT31;68949;53.176;18.088;2023-04-06T04:27:11;-0.10;69.81
79489;SHT31;68949;53.176;18.088;2023-04-06T04:29:38;-0.09;69.46
79489;SHT31;68949;53.176;18.088;2023-04-06T04:32:07;-0.07;69.38
79489;SHT31;68949;53.176;18.088;2023-04-06T04:34:34;-0.06;69.42
79489;SHT31;68949;53.176;18.088;2023-04-06T04:37:02;-0.06;69.75
79489;SHT31;68949;53.176;18.088;2023-04-06T04:39:37;-0.01;69.46
79489;SHT31;68949;53.176;18.088;2023-04-06T04:42:06;0.06;69.26
79489;SHT31;68949;53.176;18.088;2023-04-06T04:44:33;0.12;69.23
79489;SHT31;68949;53.176;18.088;2023-04-06T04:47:00;0.17;69.27
79489;SHT31;68949;53.176;18.088;2023-04-06T04:49:32;0.22;69.49
79489;SHT31;68949;53.176;18.088;2023-04-06T04:52:00;0.29;69.71
79489;SHT31;68949;53.176;18.088;2023-04-06T04:54:38;0.31;69.85
79489;SHT31;68949;53.176;18.088;2023-04-06T04:57:07;0.34;69.66
79489;SHT31;68949;53.176;18.088;2023-04-06T04:59:44;0.36;69.63
79489;SHT31;68949;53.176;18.088;2023-04-06T05:02:16;0.38;69.57
79489;SHT31;68949;53.176;18.088;2023-04-06T05:04:51;0.41;69.89
79489;SHT31;68949;53.176;18.088;2023-04-06T05:07:21;0.42;70.13
79489;SHT31;68949;53.176;18.088;2023-04-06T05:09:48;0.41;70.37
79489;SHT31;68949;53.176;18.088;2023-04-06T05:12:16;0.42;69.95
79489;SHT31;68949;53.176;18.088;2023-04-06T05:14:53;0.46;70.02
79489;SHT31;68949;53.176;18.088;2023-04-06T05:17:22;0.48;70.06
79489;SHT31;68949;53.176;18.088;2023-04-06T05:19:49;0.53;69.79
79489;SHT31;68949;53.176;18.088;2023-04-06T05:22:20;0.59;69.83
79489;SHT31;68949;53.176;18.088;2023-04-06T05:24:51;0.64;69.96
79489;SHT31;68949;53.176;18.088;2023-04-06T05:27:17;0.70;69.51
79489;SHT31;68949;53.176;18.088;2023-04-06T05:29:44;0.77;69.49
79489;SHT31;68949;53.176;18.088;2023-04-06T05:32:12;0.82;69.53
79489;SHT31;68949;53.176;18.088;2023-04-06T05:34:39;0.86;69.44
79489;SHT31;68949;53.176;18.088;2023-04-06T05:37:06;0.90;69.33
79489;SHT31;68949;53.176;18.088;2023-04-06T05:39:33;0.93;69.25
79489;SHT31;68949;53.176;18.088;2023-04-06T05:42:02;0.98;69.22
79489;SHT31;68949;53.176;18.088;2023-04-06T05:44:50;1.00;69.17
79489;SHT31;68949;53.176;18.088;2023-04-06T05:47:17;1.02;69.31
79489;SHT31;68949;53.176;18.088;2023-04-06T05:49:45;1.04;69.40
79489;SHT31;68949;53.176;18.088;2023-04-06T05:52:17;1.07;69.21
79489;SHT31;68949;53.176;18.088;2023-04-06T05:54:46;1.09;69.24
79489;SHT31;68949;53.176;18.088;2023-04-06T05:57:13;1.13;69.30
79489;SHT31;68949;53.176;18.088;2023-04-06T05:59:40;1.15;69.20
79489;SHT31;68949;53.176;18.088;2023-04-06T06:02:07;1.19;69.37
79489;SHT31;68949;53.176;18.088;2023-04-06T06:04:34;1.25;69.43
79489;SHT31;68949;53.176;18.088;2023-04-06T06:07:01;1.33;69.28
79489;SHT31;68949;53.176;18.088;2023-04-06T06:09:37;1.41;69.09
79489;SHT31;68949;53.176;18.088;2023-04-06T06:12:13;1.47;68.90
79489;SHT31;68949;53.176;18.088;2023-04-06T06:14:40;1.52;68.90
79489;SHT31;68949;53.176;18.088;2023-04-06T06:17:07;1.57;68.77
79489;SHT31;68949;53.176;18.088;2023-04-06T06:19:35;1.62;69.24
79489;SHT31;68949;53.176;18.088;2023-04-06T06:22:03;1.68;69.11
79489;SHT31;68949;53.176;18.088;2023-04-06T06:24:33;1.74;68.58
79489;SHT31;68949;53.176;18.088;2023-04-06T06:27:00;1.79;68.52
79489;SHT31;68949;53.176;18.088;2023-04-06T06:29:28;1.83;68.29
79489;SHT31;68949;53.176;18.088;2023-04-06T06:31:55;1.86;68.21
79489;SHT31;68949;53.176;18.088;2023-04-06T06:34:22;1.89;68.06
79489;SHT31;68949;53.176;18.088;2023-04-06T06:36:50;1.94;67.64
79489;SHT31;68949;53.176;18.088;2023-04-06T06:39:18;1.96;67.61
79489;SHT31;68949;53.176;18.088;2023-04-06T06:41:44;2.01;67.58
79489;SHT31;68949;53.176;18.088;2023-04-06T06:44:11;2.05;67.39
79489;SHT31;68949;53.176;18.088;2023-04-06T06:46:38;2.10;67.24
79489;SHT31;68949;53.176;18.088;2023-04-06T06:49:06;2.14;67.39
79489;SHT31;68949;53.176;18.088;2023-04-06T06:51:32;2.17;66.98
79489;SHT31;68949;53.176;18.088;2023-04-06T06:54:01;2.22;66.52
79489;SHT31;68949;53.176;18.088;2023-04-06T06:56:28;2.26;66.55
79489;SHT31;68949;53.176;18.088;2023-04-06T06:58:55;2.31;66.74
79489;SHT31;68949;53.176;18.088;2023-04-06T07:01:22;2.37;66.59
79489;SHT31;68949;53.176;18.088;2023-04-06T07:03:48;2.42;66.38
79489;SHT31;68949;53.176;18.088;2023-04-06T07:06:15;2.46;65.90
79489;SHT31;68949;53.176;18.088;2023-04-06T07:08:42;2.53;65.60
79489;SHT31;68949;53.176;18.088;2023-04-06T07:11:08;2.57;65.59
79489;SHT31;68949;53.176;18.088;2023-04-06T07:13:35;2.64;65.13
79489;SHT31;68949;53.176;18.088;2023-04-06T07:16:02;2.69;64.10
79489;SHT31;68949;53.176;18.088;2023-04-06T07:18:29;2.74;63.49
79489;SHT31;68949;53.176;18.088;2023-04-06T07:20:56;2.79;62.71
79489;SHT31;68949;53.176;18.088;2023-04-06T07:23:22;2.82;61.99
79489;SHT31;68949;53.176;18.088;2023-04-06T07:25:49;2.87;61.96
79489;SHT31;68949;53.176;18.088;2023-04-06T07:28:18;2.91;61.29
79489;SHT31;68949;53.176;18.088;2023-04-06T07:30:45;2.97;60.85
79489;SHT31;68949;53.176;18.088;2023-04-06T07:33:12;3.02;60.34
79489;SHT31;68949;53.176;18.088;2023-04-06T07:35:39;3.06;60.47
79489;SHT31;68949;53.176;18.088;2023-04-06T07:38:06;3.10;60.82
79489;SHT31;68949;53.176;18.088;2023-04-06T07:40:33;3.15;60.46
79489;SHT31;68949;53.176;18.088;2023-04-06T07:43:00;3.19;59.92
79489;SHT31;68949;53.176;18.088;2023-04-06T07:45:29;3.23;59.83
79489;SHT31;68949;53.176;18.088;2023-04-06T07:47:56;3.26;59.20
79489;SHT31;68949;53.176;18.088;2023-04-06T07:50:24;3.32;60.03
79489;SHT31;68949;53.176;18.088;2023-04-06T07:52:51;3.41;60.45
79489;SHT31;68949;53.176;18.088;2023-04-06T07:55:18;3.49;59.33
79489;SHT31;68949;53.176;18.088;2023-04-06T07:57:44;3.57;58.26
79489;SHT31;68949;53.176;18.088;2023-04-06T08:00:12;3.62;57.53
79489;SHT31;68949;53.176;18.088;2023-04-06T08:02:39;3.69;57.62
79489;SHT31;68949;53.176;18.088;2023-04-06T08:05:07;3.74;56.73
79489;SHT31;68949;53.176;18.088;2023-04-06T08:07:35;3.77;54.95
79489;SHT31;68949;53.176;18.088;2023-04-06T08:10:02;3.79;55.16
79489;SHT31;68949;53.176;18.088;2023-04-06T08:12:32;3.83;54.50
79489;SHT31;68949;53.176;18.088;2023-04-06T08:15:01;3.87;53.34
79489;SHT31;68949;53.176;18.088;2023-04-06T08:17:29;3.90;54.03
79489;SHT31;68949;53.176;18.088;2023-04-06T08:19:57;3.95;55.17
79489;SHT31;68949;53.176;18.088;2023-04-06T08:22:23;4.02;55.48
79489;SHT31;68949;53.176;18.088;2023-04-06T08:24:50;4.08;55.15
79489;SHT31;68949;53.176;18.088;2023-04-06T08:27:17;4.13;54.83
79489;SHT31;68949;53.176;18.088;2023-04-06T08:29:44;4.18;54.81
79489;SHT31;68949;53.176;18.088;2023-04-06T08:32:11;4.22;54.27
79489;SHT31;68949;53.176;18.088;2023-04-06T08:34:37;4.27;55.01
79489;SHT31;68949;53.176;18.088;2023-04-06T08:37:04;4.33;53.62
79489;SHT31;68949;53.176;18.088;2023-04-06T08:39:31;4.33;52.83
79489;SHT31;68949;53.176;18.088;2023-04-06T08:42:00;4.31;52.51
79489;SHT31;68949;53.176;18.088;2023-04-06T08:44:29;4.34;53.27
79489;SHT31;68949;53.176;18.088;2023-04-06T08:46:58;4.37;52.87
79489;SHT31;68949;53.176;18.088;2023-04-06T08:49:26;4.39;53.37
79489;SHT31;68949;53.176;18.088;2023-04-06T08:51:54;4.42;53.84
79489;SHT31;68949;53.176;18.088;2023-04-06T08:54:23;4.49;54.67
79489;SHT31;68949;53.176;18.088;2023-04-06T08:56:50;4.53;53.95
79489;SHT31;68949;53.176;18.088;2023-04-06T08:59:18;4.58;53.28
79489;SHT31;68949;53.176;18.088;2023-04-06T09:01:46;4.63;53.45
79489;SHT31;68949;53.176;18.088;2023-04-06T09:04:13;4.69;53.53
79489;SHT31;68949;53.176;18.088;2023-04-06T09:06:40;4.72;52.01
79489;SHT31;68949;53.176;18.088;2023-04-06T09:09:07;4.73;52.53
79489;SHT31;68949;53.176;18.088;2023-04-06T09:11:47;4.76;52.23
79489;SHT31;68949;53.176;18.088;2023-04-06T09:14:16;4.78;51.99
79489;SHT31;68949;53.176;18.088;2023-04-06T09:16:59;4.78;52.00
79489;SHT31;68949;53.176;18.088;2023-04-06T09:19:25;4.79;51.44
79489;SHT31;68949;53.176;18.088;2023-04-06T09:22:04;4.78;51.16
79489;SHT31;68949;53.176;18.088;2023-04-06T09:27:17;4.87;52.19
79489;SHT31;68949;53.176;18.088;2023-04-06T09:30:06;4.89;51.49
79489;SHT31;68949;53.176;18.088;2023-04-06T09:32:47;4.96;52.73
79489;SHT31;68949;53.176;18.088;2023-04-06T09:35:16;5.05;52.46
79489;SHT31;68949;53.176;18.088;2023-04-06T09:37:43;5.14;52.15
79489;SHT31;68949;53.176;18.088;2023-04-06T09:40:11;5.18;51.52
79489;SHT31;68949;53.176;18.088;2023-04-06T09:42:41;5.22;52.35
79489;SHT31;68949;53.176;18.088;2023-04-06T09:45:08;5.34;53.29
79489;SHT31;68949;53.176;18.088;2023-04-06T09:47:36;5.38;50.86
79489;SHT31;68949;53.176;18.088;2023-04-06T09:50:06;5.36;50.55
79489;SHT31;68949;53.176;18.088;2023-04-06T09:52:41;5.28;49.23
79489;SHT31;68949;53.176;18.088;2023-04-06T09:55:20;5.15;48.66
79489;SHT31;68949;53.176;18.088;2023-04-06T09:58:13;5.05;49.61
79489;SHT31;68949;53.176;18.088;2023-04-06T10:01:00;5.08;50.65
79489;SHT31;68949;53.176;18.088;2023-04-06T10:06:17;5.18;50.13
79489;SHT31;68949;53.176;18.088;2023-04-06T10:08:49;5.19;50.21
79489;SHT31;68949;53.176;18.088;2023-04-06T10:11:20;5.24;50.36
79489;SHT31;68949;53.176;18.088;2023-04-06T10:13:48;5.32;50.46
79489;SHT31;68949;53.176;18.088;2023-04-06T10:16:16;5.39;50.33
79489;SHT31;68949;53.176;18.088;2023-04-06T10:18:44;5.45;50.55
79489;SHT31;68949;53.176;18.088;2023-04-06T10:21:21;5.55;51.29
79489;SHT31;68949;53.176;18.088;2023-04-06T10:23:58;5.66;51.19
79489;SHT31;68949;53.176;18.088;2023-04-06T10:26:27;5.75;50.10
79489;SHT31;68949;53.176;18.088;2023-04-06T10:28:54;5.80;49.72
79489;SHT31;68949;53.176;18.088;2023-04-06T10:31:24;5.82;50.36
79489;SHT31;68949;53.176;18.088;2023-04-06T10:33:54;5.91;50.92
79489;SHT31;68949;53.176;18.088;2023-04-06T10:36:28;5.99;49.65
79489;SHT31;68949;53.176;18.088;2023-04-06T10:39:00;6.01;49.26
79489;SHT31;68949;53.176;18.088;2023-04-06T10:41:32;5.99;48.97
79489;SHT31;68949;53.176;18.088;2023-04-06T10:44:07;6.01;49.06
79489;SHT31;68949;53.176;18.088;2023-04-06T10:46:33;6.00;48.82
79489;SHT31;68949;53.176;18.088;2023-04-06T10:49:11;6.07;50.41
79489;SHT31;68949;53.176;18.088;2023-04-06T10:51:38;6.24;50.99
79489;SHT31;68949;53.176;18.088;2023-04-06T10:54:06;6.26;48.02
79489;SHT31;68949;53.176;18.088;2023-04-06T10:56:36;6.20;47.72
79489;SHT31;68949;53.176;18.088;2023-04-06T10:59:05;6.17;48.57
79489;SHT31;68949;53.176;18.088;2023-04-06T11:01:32;6.20;48.68
79489;SHT31;68949;53.176;18.088;2023-04-06T11:03:59;6.21;47.78
79489;SHT31;68949;53.176;18.088;2023-04-06T11:06:27;6.19;47.13
79489;SHT31;68949;53.176;18.088;2023-04-06T11:08:57;6.21;47.79
79489;SHT31;68949;53.176;18.088;2023-04-06T11:11:25;6.24;48.33
79489;SHT31;68949;53.176;18.088;2023-04-06T11:13:53;6.29;48.13
79489;SHT31;68949;53.176;18.088;2023-04-06T11:16:25;6.38;49.33
79489;SHT31;68949;53.176;18.088;2023-04-06T11:19:00;6.46;48.27
79489;SHT31;68949;53.176;18.088;2023-04-06T11:21:43;6.47;48.19
79489;SHT31;68949;53.176;18.088;2023-04-06T11:24:16;6.48;47.98
79489;SHT31;68949;53.176;18.088;2023-04-06T11:29:20;6.39;47.15
79489;SHT31;68949;53.176;18.088;2023-04-06T11:31:50;6.34;47.90
79489;SHT31;68949;53.176;18.088;2023-04-06T11:34:23;6.43;48.82
79489;SHT31;68949;53.176;18.088;2023-04-06T11:36:56;6.58;49.33
79489;SHT31;68949;53.176;18.088;2023-04-06T11:39:46;6.76;48.85
79489;SHT31;68949;53.176;18.088;2023-04-06T11:42:26;6.90;49.21
79489;SHT31;68949;53.176;18.088;2023-04-06T11:44:56;7.03;48.74
79489;SHT31;68949;53.176;18.088;2023-04-06T11:47:32;7.11;47.87
79489;SHT31;68949;53.176;18.088;2023-04-06T11:50:19;7.12;46.64
79489;SHT31;68949;53.176;18.088;2023-04-06T11:52:46;7.07;46.14
79489;SHT31;68949;53.176;18.088;2023-04-06T11:55:29;7.11;46.83
79489;SHT31;68949;53.176;18.088;2023-04-06T11:58:04;7.14;46.10
79489;SHT31;68949;53.176;18.088;2023-04-06T12:00:31;7.14;46.47
79489;SHT31;68949;53.176;18.088;2023-04-06T12:03:00;7.21;46.64
79489;SHT31;68949;53.176;18.088;2023-04-06T12:05:27;7.26;46.21
79489;SHT31;68949;53.176;18.088;2023-04-06T12:07:54;7.28;46.24
79489;SHT31;68949;53.176;18.088;2023-04-06T12:10:21;7.33;46.28
79489;SHT31;68949;53.176;18.088;2023-04-06T12:12:48;7.32;45.69
79489;SHT31;68949;53.176;18.088;2023-04-06T12:15:14;7.30;45.91
79489;SHT31;68949;53.176;18.088;2023-04-06T12:17:41;7.28;45.63
79489;SHT31;68949;53.176;18.088;2023-04-06T12:20:08;7.27;45.82
79489;SHT31;68949;53.176;18.088;2023-04-06T12:22:36;7.31;46.35
79489;SHT31;68949;53.176;18.088;2023-04-06T12:25:03;7.44;47.54
79489;SHT31;68949;53.176;18.088;2023-04-06T12:27:31;7.58;47.21
79489;SHT31;68949;53.176;18.088;2023-04-06T12:29:57;7.72;46.64
79489;SHT31;68949;53.176;18.088;2023-04-06T12:32:24;7.79;46.42
79489;SHT31;68949;53.176;18.088;2023-04-06T12:34:51;7.87;46.30
79489;SHT31;68949;53.176;18.088;2023-04-06T12:37:19;7.90;44.97
79489;SHT31;68949;53.176;18.088;2023-04-06T12:39:46;7.90;45.64
79489;SHT31;68949;53.176;18.088;2023-04-06T12:42:13;7.97;46.12
79489;SHT31;68949;53.176;18.088;2023-04-06T12:44:40;8.00;45.01
79489;SHT31;68949;53.176;18.088;2023-04-06T12:47:08;7.97;44.89
79489;SHT31;68949;53.176;18.088;2023-04-06T12:49:37;7.92;45.01
79489;SHT31;68949;53.176;18.088;2023-04-06T12:52:03;7.97;45.76
79489;SHT31;68949;53.176;18.088;2023-04-06T12:54:30;8.06;46.01
79489;SHT31;68949;53.176;18.088;2023-04-06T12:56:57;8.14;45.70
79489;SHT31;68949;53.176;18.088;2023-04-06T12:59:23;8.20;45.43
79489;SHT31;68949;53.176;18.088;2023-04-06T13:01:51;8.20;45.12
79489;SHT31;68949;53.176;18.088;2023-04-06T13:04:18;8.26;45.36
79489;SHT31;68949;53.176;18.088;2023-04-06T13:06:45;8.31;45.25
79489;SHT31;68949;53.176;18.088;2023-04-06T13:09:12;8.36;45.12
79489;SHT31;68949;53.176;18.088;2023-04-06T13:11:38;8.38;44.93
79489;SHT31;68949;53.176;18.088;2023-04-06T13:14:05;8.41;44.98
79489;SHT31;68949;53.176;18.088;2023-04-06T13:16:31;8.47;45.34
79489;SHT31;68949;53.176;18.088;2023-04-06T13:18:58;8.57;46.74
79489;SHT31;68949;53.176;18.088;2023-04-06T13:21:25;8.68;46.36
79489;SHT31;68949;53.176;18.088;2023-04-06T13:23:52;8.74;46.19
79489;SHT31;68949;53.176;18.088;2023-04-06T13:26:19;8.69;44.94
79489;SHT31;68949;53.176;18.088;2023-04-06T13:28:46;8.61;44.85
79489;SHT31;68949;53.176;18.088;2023-04-06T13:31:12;8.63;45.57
79489;SHT31;68949;53.176;18.088;2023-04-06T13:33:39;8.69;45.59
79489;SHT31;68949;53.176;18.088;2023-04-06T13:36:07;8.70;44.76
79489;SHT31;68949;53.176;18.088;2023-04-06T13:38:34;8.68;44.79
79489;SHT31;68949;53.176;18.088;2023-04-06T13:41:01;8.71;44.79
79489;SHT31;68949;53.176;18.088;2023-04-06T13:43:27;8.80;45.22
79489;SHT31;68949;53.176;18.088;2023-04-06T13:45:54;8.89;45.52
79489;SHT31;68949;53.176;18.088;2023-04-06T13:48:22;8.99;45.73
79489;SHT31;68949;53.176;18.088;2023-04-06T13:50:48;9.05;45.40
79489;SHT31;68949;53.176;18.088;2023-04-06T13:53:15;9.10;45.00
79489;SHT31;68949;53.176;18.088;2023-04-06T13:55:42;9.08;44.90
79489;SHT31;68949;53.176;18.088;2023-04-06T13:58:09;9.09;44.88
79489;SHT31;68949;53.176;18.088;2023-04-06T14:00:36;9.09;45.00
79489;SHT31;68949;53.176;18.088;2023-04-06T14:03:03;9.09;44.84
79489;SHT31;68949;53.176;18.088;2023-04-06T14:05:30;9.06;45.07
79489;SHT31;68949;53.176;18.088;2023-04-06T14:08:01;9.08;45.28
79489;SHT31;68949;53.176;18.088;2023-04-06T14:10:28;9.11;45.11
79489;SHT31;68949;53.176;18.088;2023-04-06T14:12:55;9.17;45.69
79489;SHT31;68949;53.176;18.088;2023-04-06T14:15:22;9.21;45.40
79489;SHT31;68949;53.176;18.088;2023-04-06T14:17:49;9.20;44.77
79489;SHT31;68949;53.176;18.088;2023-04-06T14:20:16;9.16;44.85
79489;SHT31;68949;53.176;18.088;2023-04-06T14:22:43;9.18;45.25
79489;SHT31;68949;53.176;18.088;2023-04-06T14:25:10;9.24;45.68
79489;SHT31;68949;53.176;18.088;2023-04-06T14:27:40;9.29;45.43
79489;SHT31;68949;53.176;18.088;2023-04-06T14:30:07;9.32;45.18
79489;SHT31;68949;53.176;18.088;2023-04-06T14:32:35;9.37;44.84
79489;SHT31;68949;53.176;18.088;2023-04-06T14:35:04;9.36;44.16
79489;SHT31;68949;53.176;18.088;2023-04-06T14:37:31;9.32;44.14
79489;SHT31;68949;53.176;18.088;2023-04-06T14:39:58;9.26;44.13
79489;SHT31;68949;53.176;18.088;2023-04-06T14:42:25;9.22;44.48
79489;SHT31;68949;53.176;18.088;2023-04-06T14:44:52;9.21;44.67
79489;SHT31;68949;53.176;18.088;2023-04-06T14:47:19;9.19;44.88
79489;SHT31;68949;53.176;18.088;2023-04-06T14:49:49;9.17;44.78
79489;SHT31;68949;53.176;18.088;2023-04-06T14:52:18;9.11;45.07
79489;SHT31;68949;53.176;18.088;2023-04-06T14:54:45;9.07;45.12
79489;SHT31;68949;53.176;18.088;2023-04-06T14:57:12;9.00;45.12
79489;SHT31;68949;53.176;18.088;2023-04-06T14:59:39;8.93;45.56
79489;SHT31;68949;53.176;18.088;2023-04-06T15:02:05;8.84;45.56
79489;SHT31;68949;53.176;18.088;2023-04-06T15:04:35;8.76;45.91
79489;SHT31;68949;53.176;18.088;2023-04-06T15:07:02;8.66;45.63
79489;SHT31;68949;53.176;18.088;2023-04-06T15:09:29;8.58;45.75
79489;SHT31;68949;53.176;18.088;2023-04-06T15:11:56;8.49;45.96
79489;SHT31;68949;53.176;18.088;2023-04-06T15:14:23;8.46;46.09
79489;SHT31;68949;53.176;18.088;2023-04-06T15:16:50;8.43;45.84
79489;SHT31;68949;53.176;18.088;2023-04-06T15:19:16;8.35;45.72
79489;SHT31;68949;53.176;18.088;2023-04-06T15:21:43;8.32;45.59
79489;SHT31;68949;53.176;18.088;2023-04-06T15:24:09;8.34;45.67
79489;SHT31;68949;53.176;18.088;2023-04-06T15:26:36;8.31;45.35
79489;SHT31;68949;53.176;18.088;2023-04-06T15:29:03;8.27;45.59
79489;SHT31;68949;53.176;18.088;2023-04-06T15:31:30;8.23;45.64
79489;SHT31;68949;53.176;18.088;2023-04-06T15:33:57;8.20;45.86
79489;SHT31;68949;53.176;18.088;2023-04-06T15:36:27;8.19;46.29
79489;SHT31;68949;53.176;18.088;2023-04-06T15:38:56;8.14;45.61
79489;SHT31;68949;53.176;18.088;2023-04-06T15:41:24;8.07;45.71
79489;SHT31;68949;53.176;18.088;2023-04-06T15:43:52;8.10;46.31
79489;SHT31;68949;53.176;18.088;2023-04-06T15:46:20;8.08;46.29